Manila, Philippines
Current Conditions -  °F | °C
As of 3:00 PM on Sunday 26 Oct 2014 (Local Time) from RPLL Reporting Station
Rain Showers Rain Showers  
Wind Chill: 88°   Ceiling: 8000
Heat Index: 96°   Visibility: 6mi
Dew Point: 73°   Wind: 8mph
Humidity: 62%   Direction: 90°E
Pressure: 29.83"   Gusts: NA
Location:  14.62°N, 120.97°E
Report Text: RPLL 260700Z 09007KT 070V130 9999 -SHRA FEW023CB SCT025 BKN080 31/23 Q1010 NOSIG RMK A2983 CB W TO NW AMD NE
Loading
Personal Weather Stations






























Interactive Weather Map New forecast layout! Learn more

10-Day Weather Forecast

Advertisements
Track Severe Weather on mobile